Time;durP1;ratioP1;P1;durP2;ratioP2;P2;SDS_P1;SDS_P2;PMS_P1;PMS_P2;Temp;Humidity;BMP_temperature;BMP_pressure;BME280_temperature;BME280_humidity;BME280_pressure;Samples;Min_cycle;Max_cycle;Signal;HPM_P1;HPM_P2
2023/03/24 00:04:24;;;;;;;4.20;3.30;;;;;;;12.45;64.40;99809.86;106759;1258;1016347;-72
2023/03/24 00:09:17;;;;;;;4.40;3.50;;;;;;;12.51;64.14;99811.91;106662;1259;1015754;-72
2023/03/24 00:14:11;;;;;;;4.00;3.20;;;;;;;12.54;63.96;99814.67;106713;1259;1016455;-72
2023/03/24 00:19:04;;;;;;;3.50;3.10;;;;;;;12.50;64.02;99820.27;106706;1262;1016984;-72
2023/03/24 00:23:58;;;;;;;6.50;4.10;;;;;;;12.42;64.02;99814.92;106688;1259;1016306;-72
2023/03/24 00:28:51;;;;;;;5.60;3.30;;;;;;;12.30;64.17;99815.84;106720;1259;1052067;-73
2023/03/24 00:33:49;;;;;;;4.10;3.30;;;;;;;12.20;64.35;99810.68;106723;1259;1015983;-72
2023/03/24 00:38:42;;;;;;;6.90;3.60;;;;;;;12.12;64.58;99812.96;106799;1259;1073106;-72
2023/03/24 00:43:37;;;;;;;3.40;2.80;;;;;;;12.04;64.73;99816.64;106707;1260;1016634;-72
2023/03/24 00:48:30;;;;;;;5.00;3.30;;;;;;;11.96;64.98;99817.52;106636;1263;1016484;-72
2023/03/24 00:53:24;;;;;;;5.80;3.80;;;;;;;11.84;65.06;99810.23;106825;1258;1016419;-72
2023/03/24 00:58:19;;;;;;;4.90;3.10;;;;;;;11.68;65.22;99812.36;106799;1260;1016313;-72
2023/03/24 01:03:12;;;;;;;5.00;3.40;;;;;;;11.49;65.44;99812.40;106905;1259;1016468;-71
2023/03/24 01:08:06;;;;;;;4.40;2.80;;;;;;;11.29;65.63;99810.16;106853;1259;1016940;-72
2023/03/24 01:13:00;;;;;;;3.60;3.10;;;;;;;11.09;65.92;99800.96;106778;1257;1016716;-72
2023/03/24 01:17:54;;;;;;;4.00;3.30;;;;;;;10.89;65.98;99795.92;106783;1259;1016481;-72
2023/03/24 01:22:47;;;;;;;5.30;3.80;;;;;;;10.67;66.15;99804.20;106843;1262;1016111;-72
2023/03/24 01:27:40;;;;;;;4.60;3.40;;;;;;;10.48;66.31;99802.78;106814;1262;1016371;-72
2023/03/24 01:32:33;;;;;;;3.20;2.90;;;;;;;10.31;66.65;99803.59;106794;1257;1016117;-72
2023/03/24 01:37:26;;;;;;;4.50;3.70;;;;;;;10.13;66.75;99797.26;106799;1262;1016463;-71
2023/03/24 01:42:22;;;;;;;7.20;3.40;;;;;;;9.96;66.86;99800.30;106782;1258;1016486;-72
2023/03/24 01:47:16;;;;;;;4.10;3.30;;;;;;;9.79;67.19;99798.83;106829;1262;1057811;-72
2023/03/24 01:52:19;;;;;;;6.40;3.80;;;;;;;9.66;67.50;99801.86;106815;1257;1016358;-72
2023/03/24 01:57:18;;;;;;;4.40;3.50;;;;;;;9.52;67.37;99802.13;106787;1261;1065366;-72
2023/03/24 02:02:12;;;;;;;4.40;3.40;;;;;;;9.35;67.76;99802.86;106759;1259;1070692;-72
2023/03/24 02:07:21;;;;;;;4.10;3.40;;;;;;;9.24;67.90;99805.55;106766;1259;1051660;-72
2023/03/24 02:12:15;;;;;;;7.10;3.90;;;;;;;9.11;68.09;99810.30;106799;1259;1057274;-72
2023/03/24 02:17:41;;;;;;;5.00;3.30;;;;;;;8.96;68.05;99798.25;106822;1263;1016085;-72
2023/03/24 02:22:41;;;;;;;5.70;3.40;;;;;;;8.82;68.53;99792.92;106678;1262;1149776;-72
2023/03/24 02:27:59;;;;;;;5.20;3.70;;;;;;;8.70;68.40;99788.33;106781;1261;1070994;-72
2023/03/24 02:32:52;;;;;;;;;;;;;;;8.56;68.69;99779.55;106744;1263;1050739;-72
2023/03/24 02:37:45;;;;;;;5.30;3.20;;;;;;;8.46;68.97;99781.16;106864;1260;1016622;-72
2023/03/24 02:43:08;;;;;;;4.30;3.60;;;;;;;8.38;69.11;99778.63;106786;1260;1018946;-72
2023/03/24 02:48:22;;;;;;;4.90;3.80;;;;;;;8.28;69.14;99785.95;106467;1264;1065549;-72
2023/03/24 02:53:41;;;;;;;6.00;4.00;;;;;;;8.16;69.43;99790.64;106440;1269;1070822;-72
2023/03/24 02:58:51;;;;;;;5.80;3.70;;;;;;;8.09;69.38;99785.73;106402;1269;1053627;-72
2023/03/24 03:03:50;;;;;;;5.80;4.10;;;;;;;7.99;69.45;99783.02;106406;1267;1058533;-72
2023/03/24 03:08:47;;;;;;;5.40;3.80;;;;;;;7.87;69.62;99778.89;106458;1269;1072827;-72
2023/03/24 03:13:46;;;;;;;12.30;4.60;;;;;;;7.79;69.83;99774.82;106569;1265;1078714;-72
2023/03/24 03:18:52;;;;;;;4.10;3.40;;;;;;;7.72;69.70;99787.31;106430;1265;1073511;-72
2023/03/24 03:24:04;;;;;;;6.20;3.80;;;;;;;7.63;69.98;99793.58;106649;1260;1051477;-72
2023/03/24 03:29:01;;;;;;;5.10;3.80;;;;;;;7.56;70.15;99796.92;106803;1260;1061390;-72
2023/03/24 03:34:04;;;;;;;5.70;4.20;;;;;;;7.47;70.35;99799.21;106822;1263;1074211;-72
2023/03/24 03:39:10;;;;;;;5.00;3.80;;;;;;;7.37;70.42;99799.23;106799;1259;1064851;-72
2023/03/24 03:44:03;;;;;;;5.90;3.60;;;;;;;7.30;70.48;99803.60;106710;1260;1071130;-72
2023/03/24 03:48:57;;;;;;;4.50;3.40;;;;;;;7.25;70.71;99802.85;106784;1260;1016444;-72
2023/03/24 03:53:57;;;;;;;4.70;3.60;;;;;;;7.20;70.78;99797.07;106776;1260;1018370;-73
2023/03/24 03:58:50;;;;;;;5.10;4.40;;;;;;;7.15;70.76;99794.41;106859;1261;1072888;-72
2023/03/24 04:03:51;;;;;;;5.10;3.80;;;;;;;7.09;71.22;99801.72;106828;1257;1015793;-72
2023/03/24 04:09:14;;;;;;;4.90;3.50;;;;;;;7.09;71.22;99798.61;106853;1257;1071098;-72
2023/03/24 04:14:25;;;;;;;5.30;4.20;;;;;;;7.05;71.34;99799.59;106938;1257;1050882;-72
2023/03/24 04:20:16;;;;;;;3.80;3.40;;;;;;;7.00;71.27;99801.26;106802;1257;1059272;-72
2023/03/24 04:25:17;;;;;;;5.70;4.10;;;;;;;6.97;71.45;99802.23;106945;1257;1072392;-72
2023/03/24 04:30:15;;;;;;;5.10;3.80;;;;;;;6.93;71.25;99789.58;106930;1257;1065133;-72
2023/03/24 04:35:19;;;;;;;5.60;4.10;;;;;;;6.90;71.64;99784.35;106868;1263;1072037;-72
2023/03/24 04:40:35;;;;;;;6.10;4.20;;;;;;;6.87;71.80;99783.27;106864;1261;1052555;-72
2023/03/24 04:45:32;;;;;;;5.60;4.00;;;;;;;6.87;72.02;99776.73;106806;1261;1058985;-72
2023/03/24 04:51:00;;;;;;;5.30;4.30;;;;;;;6.85;71.76;99777.38;106813;1257;1076274;-72
2023/03/24 04:56:29;;;;;;;8.30;3.80;;;;;;;6.84;72.05;99769.27;106817;1257;1065468;-72
2023/03/24 05:01:31;;;;;;;6.40;4.40;;;;;;;6.92;72.18;99766.64;106791;1258;1072181;-72
2023/03/24 05:06:45;;;;;;;6.10;3.80;;;;;;;7.02;72.09;99766.98;106798;1260;1054077;-71
2023/03/24 05:11:42;;;;;;;6.90;4.10;;;;;;;7.13;72.08;99758.02;106845;1257;1058477;-71
2023/03/24 05:16:35;;;;;;;6.60;4.60;;;;;;;7.26;72.06;99753.91;106775;1257;1016491;-72
2023/03/24 05:21:29;;;;;;;5.40;4.40;;;;;;;7.36;71.89;99757.17;106806;1257;1018775;-72
2023/03/24 05:26:26;;;;;;;7.30;4.50;;;;;;;7.47;72.03;99749.55;106833;1257;1071453;-72
2023/03/24 05:31:37;;;;;;;6.10;4.30;;;;;;;7.58;71.87;99752.30;106858;1257;1050553;-72
2023/03/24 05:36:41;;;;;;;6.40;4.30;;;;;;;7.73;72.04;99742.30;106833;1258;1057912;-72
2023/03/24 05:41:41;;;;;;;6.30;4.50;;;;;;;7.89;71.94;99742.69;106844;1258;1073783;-72
2023/03/24 05:46:34;;;;;;;5.40;4.30;;;;;;;8.05;71.86;99745.30;106937;1258;1016691;-72
2023/03/24 05:51:28;;;;;;;9.50;5.30;;;;;;;8.21;71.53;99737.70;106837;1259;1018916;-72
2023/03/24 05:56:27;;;;;;;4.70;4.20;;;;;;;8.40;71.94;99729.97;106821;1261;1051278;-72
2023/03/24 06:01:41;;;;;;;5.40;4.80;;;;;;;8.57;71.79;99730.15;106969;1257;1058496;-72
2023/03/24 06:06:44;;;;;;;6.20;4.60;;;;;;;8.76;71.76;99728.42;106852;1257;1073205;-72
2023/03/24 06:11:37;;;;;;;7.00;5.10;;;;;;;8.92;71.75;99728.38;106978;1257;1065544;-72
2023/03/24 06:16:32;;;;;;;11.90;8.70;;;;;;;9.09;71.80;99731.27;106993;1257;1071258;-72
2023/03/24 06:21:29;;;;;;;12.90;5.50;;;;;;;9.28;71.99;99728.12;106801;1259;1051507;-72
2023/03/24 06:26:29;;;;;;;9.90;6.40;;;;;;;9.46;71.90;99719.92;106839;1257;1058540;-72
2023/03/24 06:31:23;;;;;;;12.80;6.90;;;;;;;9.67;72.06;99723.48;106855;1262;1073385;-72
2023/03/24 06:36:18;;;;;;;11.00;7.20;;;;;;;9.89;72.20;99725.48;106787;1262;1016381;-72
2023/03/24 06:41:11;;;;;;;13.60;10.40;;;;;;;10.11;72.05;99727.30;106877;1262;1016448;-72
2023/03/24 06:46:05;;;;;;;14.50;9.70;;;;;;;10.32;72.23;99725.12;106783;1257;1019025;-73
2023/03/24 06:50:58;;;;;;;14.90;9.90;;;;;;;10.54;72.09;99721.36;106793;1258;1016419;-72
2023/03/24 06:55:51;;;;;;;13.80;10.50;;;;;;;10.75;72.01;99718.08;106824;1262;1016579;-72
2023/03/24 07:00:46;;;;;;;28.20;12.90;;;;;;;10.93;71.86;99717.20;106769;1257;1017798;-72
2023/03/24 07:05:59;;;;;;;13.50;10.30;;;;;;;11.12;71.55;99718.05;106851;1259;1071827;-72
2023/03/24 07:10:52;;;;;;;14.70;10.70;;;;;;;11.27;71.63;99717.34;106839;1257;1051372;-72
2023/03/24 07:15:45;;;;;;;17.50;11.60;;;;;;;11.39;71.37;99720.97;106863;1257;1016485;-72
2023/03/24 07:20:40;;;;;;;16.30;10.80;;;;;;;11.45;71.20;99726.16;106863;1257;1016452;-73
2023/03/24 07:25:41;;;;;;;17.60;12.50;;;;;;;11.52;71.18;99727.70;106817;1257;1066048;-72
2023/03/24 07:31:11;;;;;;;15.70;10.70;;;;;;;11.63;71.15;99726.46;106839;1257;1071213;-72
2023/03/24 07:36:06;;;;;;;13.90;11.60;;;;;;;11.75;70.96;99728.32;106767;1257;1051226;-73
2023/03/24 07:41:00;;;;;;;17.60;11.20;;;;;;;11.83;70.96;99731.95;106886;1257;1058783;-72
2023/03/24 07:45:55;;;;;;;18.90;12.10;;;;;;;11.83;71.28;99731.25;106738;1257;1073316;-72
2023/03/24 07:50:52;;;;;;;16.30;12.00;;;;;;;11.80;71.60;99728.30;106779;1257;1065487;-72
2023/03/24 07:56:20;;;;;;;17.30;11.40;;;;;;;11.80;72.08;99726.55;106587;1259;1071410;-72
2023/03/24 08:01:19;;;;;;;15.10;12.00;;;;;;;11.82;72.52;99719.09;106796;1257;1050045;-72
2023/03/24 08:06:13;;;;;;;20.30;12.70;;;;;;;11.86;73.03;99705.88;106645;1258;1058897;-72
2023/03/24 08:11:25;;;;;;;17.10;12.00;;;;;;;11.90;73.44;99705.70;106660;1259;1072175;-72
2023/03/24 08:16:18;;;;;;;15.50;11.10;;;;;;;11.88;73.88;99703.79;106741;1259;1016432;-72
2023/03/24 08:21:11;;;;;;;15.70;11.60;;;;;;;11.83;74.21;99695.82;106621;1261;1016247;-72
2023/03/24 08:26:04;;;;;;;14.00;11.60;;;;;;;11.83;74.62;99694.44;106688;1259;1016250;-72
2023/03/24 08:30:57;;;;;;;15.60;12.70;;;;;;;11.92;75.04;99690.23;106675;1259;1016765;-71
2023/03/24 08:35:51;;;;;;;16.60;12.70;;;;;;;12.18;75.00;99678.65;106713;1259;1017498;-73
2023/03/24 08:40:44;;;;;;;16.20;12.50;;;;;;;12.45;74.84;99673.26;106768;1262;1065909;-72
2023/03/24 08:45:38;;;;;;;17.00;13.20;;;;;;;12.52;75.25;99661.39;106723;1259;1016445;-72
2023/03/24 08:50:35;;;;;;;14.60;12.70;;;;;;;12.78;75.31;99646.90;106754;1259;1016348;-73
2023/03/24 08:55:28;;;;;;;16.20;12.30;;;;;;;13.22;74.89;99640.73;106807;1259;1059231;-72
2023/03/24 09:00:21;;;;;;;14.70;12.20;;;;;;;13.23;74.85;99633.77;106759;1257;1018692;-75
2023/03/24 09:05:17;;;;;;;16.80;12.70;;;;;;;13.03;75.12;99623.02;106750;1260;1016301;-74
2023/03/24 09:10:28;;;;;;;13.50;12.10;;;;;;;12.80;75.45;99612.45;106786;1257;1071259;-72
2023/03/24 09:15:22;;;;;;;15.20;12.00;;;;;;;12.70;75.72;99600.05;106831;1257;1016294;-73
2023/03/24 09:20:16;;;;;;;15.60;11.90;;;;;;;12.79;76.15;99598.56;106821;1259;1016332;-74
2023/03/24 09:25:10;;;;;;;14.30;11.90;;;;;;;12.96;75.99;99584.30;106944;1257;1016282;-73
2023/03/24 09:30:03;;;;;;;13.60;12.30;;;;;;;13.37;75.54;99581.92;106970;1257;1016374;-72
2023/03/24 09:34:56;;;;;;;14.20;12.60;;;;;;;14.40;73.84;99576.92;106887;1258;1016446;-73
2023/03/24 09:39:49;;;;;;;13.00;10.90;;;;;;;15.57;72.00;99564.95;106825;1257;1016375;-72
2023/03/24 09:44:52;;;;;;;11.90;10.50;;;;;;;16.57;70.46;99547.91;106831;1259;1016095;-73
2023/03/24 09:49:46;;;;;;;11.70;9.70;;;;;;;17.09;69.34;99538.81;106851;1257;1073054;-72
2023/03/24 09:54:39;;;;;;;10.80;9.50;;;;;;;17.15;68.85;99538.14;106959;1257;1016382;-73
2023/03/24 09:59:36;;;;;;;10.20;7.90;;;;;;;17.06;68.90;99534.38;106828;1257;1016255;-72
2023/03/24 10:04:31;;;;;;;10.00;7.70;;;;;;;17.42;68.60;99533.99;106827;1257;1052138;-74
2023/03/24 10:09:29;;;;;;;8.10;7.30;;;;;;;17.64;67.59;99520.40;106900;1257;1058671;-73
2023/03/24 10:14:46;;;;;;;7.50;6.80;;;;;;;17.87;67.48;99511.08;107068;1257;1073786;-73
2023/03/24 10:20:04;;;;;;;7.90;7.10;;;;;;;18.07;66.01;99500.82;106820;1259;1064015;-73
2023/03/24 10:25:07;;;;;;;7.00;6.30;;;;;;;18.07;65.57;99506.61;106795;1259;1071820;-73
2023/03/24 10:30:23;;;;;;;7.10;6.10;;;;;;;17.67;65.38;99506.62;106846;1259;1050862;-73
2023/03/24 10:35:24;;;;;;;7.40;5.90;;;;;;;17.14;65.97;99502.28;106956;1257;1059290;-74
2023/03/24 10:40:21;;;;;;;7.40;6.10;;;;;;;16.62;66.31;99496.86;106811;1257;1072493;-73
2023/03/24 10:45:20;;;;;;;9.40;6.60;;;;;;;16.25;66.95;99494.17;106869;1259;1065785;-73
2023/03/24 10:50:13;;;;;;;7.60;6.30;;;;;;;16.09;67.44;99488.65;106877;1257;1073739;-72
2023/03/24 10:55:15;;;;;;;9.50;6.90;;;;;;;15.96;68.23;99483.70;106951;1257;1016814;-73
2023/03/24 11:00:17;;;;;;;8.40;6.90;;;;;;;15.90;68.91;99480.38;106735;1257;1058281;-73
2023/03/24 11:05:21;;;;;;;11.40;7.20;;;;;;;15.79;68.65;99483.23;106905;1257;1073601;-74
2023/03/24 11:10:17;;;;;;;6.80;6.10;;;;;;;15.65;68.65;99482.86;106911;1257;1065705;-72
2023/03/24 11:15:23;;;;;;;6.90;6.00;;;;;;;15.49;68.46;99475.54;106814;1257;1071203;-72
2023/03/24 11:20:26;;;;;;;7.20;5.80;;;;;;;15.35;68.38;99472.54;106889;1259;1050725;-73
2023/03/24 11:25:19;;;;;;;6.60;5.90;;;;;;;15.24;68.63;99470.52;107011;1257;1058305;-72
2023/03/24 11:30:14;;;;;;;8.30;6.30;;;;;;;15.19;68.69;99468.19;106935;1257;1016769;-73
2023/03/24 11:35:16;;;;;;;8.90;7.00;;;;;;;15.22;68.69;99458.52;106914;1257;1064526;-73
2023/03/24 11:40:12;;;;;;;11.10;7.20;;;;;;;15.30;68.51;99448.06;106845;1257;1070629;-72
2023/03/24 11:45:22;;;;;;;9.60;7.40;;;;;;;15.34;68.46;99437.48;106846;1259;1051655;-73
2023/03/24 11:50:21;;;;;;;8.50;7.20;;;;;;;15.42;68.24;99430.31;106764;1259;1058205;-73
2023/03/24 11:55:23;;;;;;;9.80;7.40;;;;;;;15.41;68.54;99416.20;106860;1258;1073015;-73
2023/03/24 12:00:31;;;;;;;7.80;6.50;;;;;;;15.37;68.21;99404.76;106810;1257;1065481;-73
2023/03/24 12:05:40;;;;;;;7.50;6.50;;;;;;;15.35;68.19;99396.23;106841;1259;1070849;-74
2023/03/24 12:11:15;;;;;;;6.40;5.30;;;;;;;15.37;68.06;99388.52;106951;1257;1051474;-72
2023/03/24 12:16:39;;;;;;;5.40;4.70;;;;;;;15.47;67.73;99376.05;106912;1258;1058356;-72
2023/03/24 12:22:13;;;;;;;6.30;5.20;;;;;;;15.56;67.47;99379.68;106818;1262;1072578;-73
2023/03/24 12:27:19;;;;;;;7.30;5.60;;;;;;;15.70;67.45;99369.02;106800;1258;1067464;-73
2023/03/24 12:32:45;;;;;;;7.00;5.50;;;;;;;15.93;67.31;99363.58;106848;1259;1070978;-73
2023/03/24 12:37:57;;;;;;;7.70;5.90;;;;;;;16.14;66.90;99354.27;106866;1257;1051691;-73
2023/03/24 12:43:24;;;;;;;7.60;6.10;;;;;;;16.43;66.63;99358.54;106848;1257;1058391;-73
2023/03/24 12:48:27;;;;;;;7.50;5.00;;;;;;;16.85;65.76;99347.16;106854;1257;1072662;-74
2023/03/24 12:53:40;;;;;;;6.80;5.80;;;;;;;17.34;64.95;99342.48;106828;1260;1065609;-73
2023/03/24 12:58:41;;;;;;;10.20;5.70;;;;;;;17.86;64.00;99333.74;106834;1258;1071897;-74
2023/03/24 13:03:44;;;;;;;5.60;5.00;;;;;;;18.30;63.26;99318.15;106833;1257;1050516;-73
2023/03/24 13:08:40;;;;;;;5.10;4.40;;;;;;;18.54;62.56;99306.02;106899;1258;1059184;-73
2023/03/24 13:13:41;;;;;;;5.00;4.20;;;;;;;18.82;61.95;99300.75;106844;1257;1071455;-72
2023/03/24 13:18:46;;;;;;;4.30;3.40;;;;;;;19.02;61.16;99295.77;106814;1259;1065529;-74
2023/03/24 13:23:57;;;;;;;4.90;3.70;;;;;;;19.12;60.18;99295.70;106837;1257;1070986;-73
2023/03/24 13:29:03;;;;;;;6.10;4.10;;;;;;;19.22;59.59;99290.73;106905;1258;1054013;-74
2023/03/24 13:33:58;;;;;;;5.40;3.60;;;;;;;19.15;59.58;99284.52;106828;1257;1058670;-73
2023/03/24 13:38:58;;;;;;;6.30;3.80;;;;;;;19.04;59.24;99280.39;106824;1257;1075459;-73
2023/03/24 13:43:59;;;;;;;4.50;3.20;;;;;;;18.87;59.14;99274.92;106846;1262;1065539;-72
2023/03/24 13:48:55;;;;;;;3.20;2.90;;;;;;;18.71;58.64;99267.10;106830;1258;1070383;-72
2023/03/24 13:53:58;;;;;;;4.20;3.50;;;;;;;18.48;58.75;99266.10;106814;1258;1051445;-73
2023/03/24 13:59:21;;;;;;;5.10;3.40;;;;;;;18.41;58.66;99265.81;106906;1261;1059024;-76
2023/03/24 14:04:20;;;;;;;3.30;2.80;;;;;;;18.51;58.50;99257.02;106211;1267;1072931;-74
2023/03/24 14:09:29;;;;;;;4.20;2.80;;;;;;;18.57;58.11;99249.06;106237;1267;1065854;-73
2023/03/24 14:14:24;;;;;;;3.80;3.20;;;;;;;18.62;58.32;99243.08;106265;1267;1071361;-73
2023/03/24 14:19:25;;;;;;;3.70;3.30;;;;;;;18.64;58.16;99241.77;106289;1267;1054176;-73
2023/03/24 14:24:26;;;;;;;4.20;3.20;;;;;;;18.57;57.68;99235.75;106117;1267;1059660;-73
2023/03/24 14:29:53;;;;;;;3.70;3.40;;;;;;;18.52;57.80;99226.61;106303;1267;1073394;-73
2023/03/24 14:34:57;;;;;;;3.30;3.00;;;;;;;18.50;57.73;99222.84;105817;1273;1065703;-72
2023/03/24 14:39:52;;;;;;;3.00;2.80;;;;;;;18.46;57.84;99218.44;105942;1270;1071731;-73
2023/03/24 14:50:22;;;;;;;3.90;2.70;;;;;;;18.46;57.51;99203.87;106309;1266;1058146;-73
2023/03/24 14:55:18;;;;;;;3.10;2.80;;;;;;;18.49;57.21;99197.98;106435;1268;1072971;-73
2023/03/24 15:00:24;;;;;;;5.30;3.20;;;;;;;18.53;56.99;99192.37;106314;1265;1065457;-74
2023/03/24 15:05:37;;;;;;;3.20;2.90;;;;;;;18.53;56.71;99188.70;106406;1266;1071214;-74
2023/03/24 15:10:50;;;;;;;4.00;2.70;;;;;;;18.42;56.56;99176.34;106793;1259;1051608;-74
2023/03/24 15:15:47;;;;;;;2.90;2.60;;;;;;;18.28;56.47;99169.84;106804;1257;1058341;-73
2023/03/24 15:20:40;;;;;;;2.50;2.30;;;;;;;18.16;56.40;99165.05;106869;1262;1073165;-73
2023/03/24 15:25:33;;;;;;;3.40;2.60;;;;;;;18.04;56.69;99161.86;106825;1259;1016551;-73
2023/03/24 15:30:28;;;;;;;2.60;2.30;;;;;;;17.95;56.80;99154.31;106807;1259;1016041;-72
2023/03/24 15:35:23;;;;;;;3.60;3.00;;;;;;;17.88;56.73;99148.27;106786;1257;1054014;-73
2023/03/24 15:40:53;;;;;;;2.80;2.60;;;;;;;17.79;56.82;99149.44;106843;1257;1058063;-72
2023/03/24 15:45:51;;;;;;;2.80;2.60;;;;;;;17.65;56.75;99148.02;106217;1267;1072553;-73
2023/03/24 15:51:11;;;;;;;3.40;2.80;;;;;;;17.53;56.95;99148.12;106227;1267;1067429;-74
2023/03/24 15:56:17;;;;;;;2.50;2.30;;;;;;;17.42;56.83;99142.03;106272;1267;1073629;-75
2023/03/24 16:01:13;;;;;;;3.40;3.00;;;;;;;17.35;57.02;99144.39;106230;1267;1053661;-74
2023/03/24 16:06:13;;;;;;;3.20;2.90;;;;;;;17.26;57.17;99144.36;106305;1267;1060908;-73
2023/03/24 16:11:10;;;;;;;3.90;3.60;;;;;;;17.17;57.21;99136.62;106227;1267;1073913;-73
2023/03/24 16:16:15;;;;;;;2.50;2.30;;;;;;;17.07;57.45;99134.67;106258;1267;1065671;-74
2023/03/24 16:21:18;;;;;;;3.60;2.80;;;;;;;16.98;57.69;99130.45;106482;1259;1070245;-74
2023/03/24 16:26:39;;;;;;;4.40;3.00;;;;;;;16.88;58.14;99131.33;106783;1259;1050934;-74
2023/03/24 16:31:34;;;;;;;4.10;3.20;;;;;;;16.74;58.50;99125.80;106826;1259;1058099;-72
2023/03/24 16:36:27;;;;;;;5.70;3.30;;;;;;;16.66;58.56;99125.56;106825;1259;1073662;-73
2023/03/24 16:41:20;;;;;;;7.90;4.00;;;;;;;16.56;58.71;99121.49;106886;1259;1015889;-72
2023/03/24 16:46:15;;;;;;;5.40;4.20;;;;;;;16.53;58.70;99121.77;106759;1259;1016275;-72
2023/03/24 16:51:14;;;;;;;4.20;3.80;;;;;;;16.55;58.76;99127.83;106885;1259;1050532;-72
2023/03/24 16:56:08;;;;;;;5.60;4.00;;;;;;;16.51;58.99;99133.05;106735;1259;1058788;-72
2023/03/24 17:01:01;;;;;;;5.90;3.80;;;;;;;16.44;59.70;99145.31;106788;1259;1016305;-72
2023/03/24 17:05:56;;;;;;;4.50;3.70;;;;;;;16.26;60.57;99155.13;106735;1258;1016772;-72
2023/03/24 17:10:53;;;;;;;5.10;4.20;;;;;;;16.05;61.13;99159.48;106762;1259;1016117;-72
2023/03/24 17:15:46;;;;;;;;;;;;;;;15.89;61.50;99168.16;106756;1260;1050691;-73
2023/03/24 17:20:39;;;;;;;5.00;4.40;;;;;;;15.77;61.93;99180.02;106938;1257;1016430;-72
2023/03/24 17:25:32;;;;;;;6.40;4.90;;;;;;;15.72;62.05;99192.73;106791;1257;1016444;-72
2023/03/24 17:30:27;;;;;;;7.80;5.30;;;;;;;15.65;62.65;99207.07;106789;1257;1018556;-72
2023/03/24 17:35:22;;;;;;;7.50;6.30;;;;;;;15.52;63.41;99221.91;106810;1259;1076058;-72
2023/03/24 17:40:18;;;;;;;6.60;5.50;;;;;;;15.35;64.53;99231.78;106811;1262;1050552;-72
2023/03/24 17:45:17;;;;;;;6.40;5.50;;;;;;;15.13;65.47;99237.25;106869;1259;1061450;-72
2023/03/24 17:50:11;;;;;;;7.10;6.40;;;;;;;14.92;66.18;99245.60;106862;1257;1071475;-72
2023/03/24 17:55:05;;;;;;;7.20;6.10;;;;;;;14.75;67.06;99252.13;106846;1261;1015855;-72
2023/03/24 17:59:58;;;;;;;7.40;6.60;;;;;;;14.64;67.71;99250.12;106876;1258;1016293;-72
2023/03/24 18:04:51;;;;;;;9.40;7.70;;;;;;;14.52;68.51;99253.84;106803;1257;1018910;-71
2023/03/24 18:09:43;;;;;;;9.30;7.50;;;;;;;14.40;69.22;99263.53;106849;1257;1016399;-71
2023/03/24 18:14:36;;;;;;;11.30;8.60;;;;;;;14.30;69.69;99258.88;106816;1259;1018985;-72
2023/03/24 18:19:29;;;;;;;13.40;8.30;;;;;;;14.20;70.33;99254.55;106805;1261;1016459;-72
2023/03/24 18:24:24;;;;;;;9.20;8.10;;;;;;;14.09;70.77;99251.45;106783;1259;1016526;-72
2023/03/24 18:29:17;;;;;;;9.10;7.60;;;;;;;14.00;71.32;99246.41;106769;1258;1050959;-72
2023/03/24 18:34:09;;;;;;;9.10;7.90;;;;;;;13.93;71.75;99243.77;106838;1262;1018524;-72
2023/03/24 18:39:07;;;;;;;9.90;8.90;;;;;;;13.85;72.18;99225.81;106779;1262;1016202;-72
2023/03/24 18:44:00;;;;;;;9.10;7.40;;;;;;;13.80;72.58;99220.36;106829;1259;1064871;-72
2023/03/24 18:48:53;;;;;;;10.90;8.40;;;;;;;13.73;72.94;99225.54;106802;1258;1016438;-72
2023/03/24 18:53:49;;;;;;;11.50;8.50;;;;;;;13.69;73.39;99225.45;106878;1259;1016352;-72
2023/03/24 18:58:43;;;;;;;9.50;8.50;;;;;;;13.62;73.63;99222.09;106895;1257;1058305;-72
2023/03/24 19:03:37;;;;;;;10.40;9.10;;;;;;;13.55;73.99;99230.05;106843;1259;1015752;-72
2023/03/24 19:08:30;;;;;;;10.40;9.50;;;;;;;13.49;74.26;99234.52;106857;1259;1017209;-72
2023/03/24 19:13:23;;;;;;;11.90;8.10;;;;;;;13.47;74.68;99228.98;106840;1257;1016303;-72
2023/03/24 19:18:16;;;;;;;10.40;9.30;;;;;;;13.43;74.91;99219.48;106817;1258;1016368;-72
2023/03/24 19:23:09;;;;;;;9.80;8.70;;;;;;;13.37;75.14;99209.67;106825;1258;1016493;-72
2023/03/24 19:28:02;;;;;;;10.30;9.20;;;;;;;13.30;75.41;99206.66;106800;1258;1015782;-72
2023/03/24 19:32:55;;;;;;;9.30;8.40;;;;;;;13.26;75.60;99204.80;106799;1258;1016413;-72
2023/03/24 19:37:48;;;;;;;9.50;8.50;;;;;;;13.20;75.80;99205.61;106797;1261;1017070;-72
2023/03/24 19:42:43;;;;;;;10.50;9.00;;;;;;;13.17;76.09;99204.27;106790;1261;1016840;-72
2023/03/24 19:47:36;;;;;;;9.90;8.80;;;;;;;13.16;76.34;99200.10;106857;1257;1057813;-72
2023/03/24 19:52:29;;;;;;;10.40;8.90;;;;;;;13.13;76.43;99194.07;106796;1262;1016265;-72
2023/03/24 19:57:23;;;;;;;11.30;9.30;;;;;;;13.11;76.66;99195.50;106808;1260;1015733;-72
2023/03/24 20:02:19;;;;;;;11.00;9.90;;;;;;;13.07;76.89;99194.17;106856;1262;1016116;-72
2023/03/24 20:07:12;;;;;;;9.50;8.60;;;;;;;13.03;77.09;99183.98;106812;1262;1050440;-72
2023/03/24 20:12:05;;;;;;;10.90;9.20;;;;;;;12.92;77.02;99181.72;106784;1259;1016411;-72
2023/03/24 20:16:59;;;;;;;10.10;9.10;;;;;;;12.79;76.92;99185.95;106896;1262;1016494;-72
2023/03/24 20:21:52;;;;;;;9.20;8.10;;;;;;;12.68;76.99;99190.31;106933;1258;1016517;-72
2023/03/24 20:26:45;;;;;;;9.60;8.60;;;;;;;12.60;77.11;99193.21;106892;1257;1016376;-72
2023/03/24 20:31:40;;;;;;;10.60;9.50;;;;;;;12.54;77.27;99191.20;106943;1257;1051675;-74
2023/03/24 20:36:34;;;;;;;13.70;12.00;;;;;;;12.49;77.36;99191.81;106741;1261;1016494;-72
2023/03/24 20:41:26;;;;;;;11.10;9.70;;;;;;;12.43;77.64;99191.55;106578;1258;1016269;-72
2023/03/24 20:46:19;;;;;;;9.90;8.80;;;;;;;12.34;77.56;99193.77;106737;1257;1016036;-72
2023/03/24 20:51:13;;;;;;;12.00;10.70;;;;;;;12.23;77.54;99209.39;106674;1258;1016086;-72
2023/03/24 20:56:09;;;;;;;16.50;14.80;;;;;;;12.22;78.33;99229.55;106719;1257;1016279;-73
2023/03/24 21:01:07;;;;;;;17.40;14.60;;;;;;;12.31;79.01;99241.06;106721;1258;1058191;-72
2023/03/24 21:06:01;;;;;;;17.10;14.80;;;;;;;12.41;79.20;99232.41;106767;1259;1072989;-72
2023/03/24 21:10:57;;;;;;;17.50;15.70;;;;;;;12.47;79.18;99235.98;106792;1259;1016450;-71
2023/03/24 21:15:51;;;;;;;16.20;14.40;;;;;;;12.50;79.22;99242.02;106849;1258;1071410;-72
2023/03/24 21:20:53;;;;;;;16.70;15.00;;;;;;;12.54;79.34;99251.34;106744;1261;1016384;-72
2023/03/24 21:25:47;;;;;;;16.00;13.40;;;;;;;12.57;79.38;99245.75;107368;1257;1058944;-72
2023/03/24 21:30:40;;;;;;;13.70;12.30;;;;;;;12.60;79.25;99253.70;106604;1257;1016180;-72
2023/03/24 21:35:33;;;;;;;13.70;11.90;;;;;;;12.59;79.22;99254.05;106651;1257;1018528;-72
2023/03/24 21:40:26;;;;;;;11.20;10.00;;;;;;;12.58;79.09;99259.11;106734;1257;1016033;-72
2023/03/24 21:45:22;;;;;;;11.20;10.10;;;;;;;12.58;79.09;99283.62;106835;1263;1018218;-72
2023/03/24 21:50:21;;;;;;;9.70;8.80;;;;;;;12.56;78.81;99294.60;106801;1258;1059127;-73
2023/03/24 21:55:16;;;;;;;11.30;8.80;;;;;;;12.50;78.62;99303.72;106708;1257;1075699;-72
2023/03/24 22:00:13;;;;;;;7.90;7.10;;;;;;;12.44;78.43;99279.83;106826;1257;1016104;-71
2023/03/24 22:05:06;;;;;;;10.30;7.10;;;;;;;12.38;78.11;99240.45;106732;1260;1073070;-72
2023/03/24 22:10:02;;;;;;;8.10;6.80;;;;;;;12.32;78.23;99235.16;106728;1257;1017752;-72
2023/03/24 22:14:55;;;;;;;8.20;7.40;;;;;;;12.23;78.39;99236.30;106758;1257;1059405;-73
2023/03/24 22:19:48;;;;;;;9.70;6.70;;;;;;;12.14;78.57;99257.10;106740;1257;1016485;-72
2023/03/24 22:24:41;;;;;;;7.50;6.60;;;;;;;12.06;78.78;99267.96;106793;1257;1016437;-72
2023/03/24 22:29:34;;;;;;;8.00;7.20;;;;;;;12.00;78.85;99270.13;106759;1260;1017093;-72
2023/03/24 22:34:28;;;;;;;8.20;6.60;;;;;;;11.90;78.74;99264.15;106769;1257;1016221;-72
2023/03/24 22:39:21;;;;;;;9.40;7.90;;;;;;;11.78;79.01;99275.37;106795;1257;1016350;-72
2023/03/24 22:44:15;;;;;;;12.00;9.00;;;;;;;11.67;79.11;99276.55;106848;1262;1016402;-72